QTR41P OTHH-LIPZ
Flight info
| Callsign | QTR41P |
|---|---|
| Flight time | N/A |
| Altitude | 38000 |
| Route | TULUB B457 BHR M444 DAVUS L602 TASMI UL602 GADSI UM860 SEPTU DCT VUSEB UM860 ODALI UL852 NEGEM DCT SITNO DCT TOTKA DCT IDOMO DCT ANASA DCT ENUPU DCT OBISA DCT OKSIG DCT KULEN DCT LABIN Z122 BASOG |
| Aircraft | A359/H-SDE2E3GHIJ3J4J5LM1ORWXY/LB1D1 |
Departure
| Time | 2026-02-22 06:16 |
|---|---|
| Airport | Hamad International Airport (OTHH) |
Arrival
| Time | N/A |
|---|---|
| Airport | Venice Marco Polo Airport (LIPZ) |
| Time | Latitude | Longitude | Altitude | Speed | Heading |
|---|---|---|---|---|---|
| 2026-02-22 05:34 | 25.25954 | 51.61059 | 28 ft | 0 kts | 337° |
| 2026-02-22 06:05 | 25.25952 | 51.61060 | 28 ft | 1 kts | 337° |
| 2026-02-22 06:05 | 25.25935 | 51.61067 | 27 ft | 3 kts | 338° |
| 2026-02-22 06:06 | 25.25917 | 51.61075 | 27 ft | 2 kts | 338° |
| 2026-02-22 06:06 | 25.25900 | 51.61083 | 26 ft | 3 kts | 326° |
| 2026-02-22 06:06 | 25.25886 | 51.61095 | 27 ft | 3 kts | 303° |
| 2026-02-22 06:06 | 25.25879 | 51.61110 | 27 ft | 3 kts | 273° |
| 2026-02-22 06:07 | 25.25880 | 51.61128 | 26 ft | 3 kts | 250° |
| 2026-02-22 06:07 | 25.25887 | 51.61146 | 26 ft | 2 kts | 245° |
| 2026-02-22 06:10 | 25.25886 | 51.61144 | 28 ft | 3 kts | 248° |
| 2026-02-22 06:10 | 25.25873 | 51.61108 | 28 ft | 6 kts | 248° |
| 2026-02-22 06:11 | 25.25854 | 51.61054 | 28 ft | 9 kts | 248° |
| 2026-02-22 06:11 | 25.25828 | 51.60984 | 28 ft | 11 kts | 249° |
| 2026-02-22 06:11 | 25.25800 | 51.60903 | 28 ft | 12 kts | 248° |
| 2026-02-22 06:11 | 25.25733 | 51.60889 | 28 ft | 12 kts | 165° |
| 2026-02-22 06:12 | 25.25665 | 51.60867 | 28 ft | 10 kts | 240° |
| 2026-02-22 06:12 | 25.25634 | 51.60791 | 27 ft | 12 kts | 247° |
| 2026-02-22 06:12 | 25.25602 | 51.60704 | 32 ft | 12 kts | 249° |
| 2026-02-22 06:12 | 25.25595 | 51.60685 | 29 ft | 0 kts | 249° |
| 2026-02-22 06:14 | 25.25595 | 51.60684 | 29 ft | 0 kts | 249° |
| 2026-02-22 06:14 | 25.25588 | 51.60660 | 26 ft | 8 kts | 251° |
| 2026-02-22 06:15 | 25.25566 | 51.60587 | 23 ft | 11 kts | 252° |
| 2026-02-22 06:15 | 25.25598 | 51.60528 | 22 ft | 10 kts | 330° |
| 2026-02-22 06:15 | 25.25662 | 51.60498 | 22 ft | 10 kts | 338° |
| 2026-02-22 06:15 | 25.25849 | 51.60414 | 29 ft | 58 kts | 338° |
| 2026-02-22 06:16 | 25.26410 | 51.60167 | 26 ft | 114 kts | 338° |
| 2026-02-22 06:16 | 25.27294 | 51.59777 | 28 ft | 162 kts | 337° |
| 2026-02-22 06:16 | 25.28377 | 51.59298 | 494 ft | 169 kts | 336° |
| 2026-02-22 06:16 | 25.29485 | 51.58799 | 1081 ft | 175 kts | 336° |
| 2026-02-22 06:17 | 25.30635 | 51.58292 | 1620 ft | 180 kts | 338° |
| 2026-02-22 06:17 | 25.31801 | 51.57775 | 2089 ft | 181 kts | 338° |
| 2026-02-22 06:17 | 25.32976 | 51.57250 | 2548 ft | 182 kts | 338° |
| 2026-02-22 06:17 | 25.34152 | 51.56717 | 3015 ft | 183 kts | 338° |
| 2026-02-22 06:18 | 25.35350 | 51.56165 | 3366 ft | 191 kts | 338° |
| 2026-02-22 06:18 | 25.36599 | 51.55577 | 3679 ft | 200 kts | 338° |
| 2026-02-22 06:18 | 25.37906 | 51.54943 | 3969 ft | 209 kts | 336° |
| 2026-02-22 06:18 | 25.39255 | 51.54257 | 4280 ft | 217 kts | 335° |
| 2026-02-22 06:19 | 25.40672 | 51.53547 | 4521 ft | 232 kts | 339° |
| 2026-02-22 06:19 | 25.42235 | 51.52923 | 4639 ft | 248 kts | 342° |
| 2026-02-22 06:19 | 25.43873 | 51.52293 | 5141 ft | 250 kts | 341° |
| 2026-02-22 06:19 | 25.45505 | 51.51630 | 5731 ft | 249 kts | 340° |
| 2026-02-22 06:20 | 25.47128 | 51.50961 | 6292 ft | 249 kts | 342° |
| 2026-02-22 06:20 | 25.48764 | 51.50313 | 6790 ft | 252 kts | 332° |
| 2026-02-22 06:20 | 25.50258 | 51.49272 | 7264 ft | 255 kts | 327° |
| 2026-02-22 06:20 | 25.51728 | 51.48143 | 7758 ft | 258 kts | 327° |
| 2026-02-22 06:21 | 25.53201 | 51.46989 | 8256 ft | 261 kts | 326° |
| 2026-02-22 06:21 | 25.54185 | 51.46215 | 8592 ft | 263 kts | 326° |
| 2026-02-22 06:21 | 25.56192 | 51.44638 | 9107 ft | 274 kts | 326° |
| 2026-02-22 06:21 | 25.57783 | 51.43388 | 9394 ft | 286 kts | 326° |
| 2026-02-22 06:22 | 25.59421 | 51.42100 | 9852 ft | 292 kts | 326° |
| 2026-02-22 06:22 | 25.61094 | 51.40785 | 10219 ft | 299 kts | 326° |
| 2026-02-22 06:22 | 25.62827 | 51.39423 | 10435 ft | 312 kts | 326° |
| 2026-02-22 06:22 | 25.64027 | 51.38480 | 10584 ft | 321 kts | 326° |
| 2026-02-22 06:23 | 25.65880 | 51.37022 | 10797 ft | 333 kts | 326° |
| 2026-02-22 06:23 | 25.67813 | 51.35502 | 11006 ft | 345 kts | 326° |
| 2026-02-22 06:23 | 25.70466 | 51.33409 | 11273 ft | 360 kts | 326° |
| 2026-02-22 06:23 | 25.71861 | 51.32307 | 11403 ft | 367 kts | 325° |
| 2026-02-22 06:24 | 25.73967 | 51.30644 | 11588 ft | 377 kts | 325° |
| 2026-02-22 06:24 | 25.76092 | 51.28969 | 11849 ft | 383 kts | 325° |
| 2026-02-22 06:24 | 25.78270 | 51.27250 | 12217 ft | 385 kts | 325° |
| 2026-02-22 06:24 | 25.80466 | 51.25517 | 12600 ft | 388 kts | 325° |
| 2026-02-22 06:25 | 25.82671 | 51.23775 | 12978 ft | 390 kts | 325° |
| 2026-02-22 06:25 | 25.84891 | 51.22020 | 13356 ft | 392 kts | 324° |
| 2026-02-22 06:25 | 25.87114 | 51.20262 | 13729 ft | 394 kts | 324° |
| 2026-02-22 06:25 | 25.89358 | 51.18487 | 14057 ft | 396 kts | 324° |
| 2026-02-22 06:26 | 25.91607 | 51.16707 | 14386 ft | 398 kts | 324° |
| 2026-02-22 06:26 | 25.93874 | 51.14913 | 14736 ft | 399 kts | 324° |
| 2026-02-22 06:26 | 25.96140 | 51.13120 | 15071 ft | 401 kts | 323° |
| 2026-02-22 06:26 | 25.98417 | 51.11315 | 15419 ft | 402 kts | 323° |
| 2026-02-22 06:27 | 26.00698 | 51.09505 | 15760 ft | 404 kts | 323° |
| 2026-02-22 06:27 | 26.02995 | 51.07681 | 16086 ft | 406 kts | 323° |
| 2026-02-22 06:27 | 26.05271 | 51.05875 | 16412 ft | 408 kts | 323° |
| 2026-02-22 06:27 | 26.07586 | 51.04037 | 16735 ft | 410 kts | 323° |
| 2026-02-22 06:28 | 26.09889 | 51.02091 | 17059 ft | 411 kts | 317° |
| 2026-02-22 06:28 | 26.11729 | 50.99715 | 17368 ft | 410 kts | 302° |
| 2026-02-22 06:28 | 26.13168 | 50.96972 | 17720 ft | 410 kts | 296° |
| 2026-02-22 06:28 | 26.14414 | 50.94116 | 18061 ft | 411 kts | 293° |
| 2026-02-22 06:29 | 26.15566 | 50.91205 | 18377 ft | 412 kts | 292° |
| 2026-02-22 06:29 | 26.16691 | 50.88272 | 18660 ft | 412 kts | 291° |
| 2026-02-22 06:29 | 26.17822 | 50.85335 | 18992 ft | 412 kts | 292° |
| 2026-02-22 06:29 | 26.18970 | 50.82405 | 19307 ft | 412 kts | 292° |
| 2026-02-22 06:30 | 26.20137 | 50.79481 | 19602 ft | 412 kts | 292° |
| 2026-02-22 06:30 | 26.21317 | 50.76567 | 19908 ft | 413 kts | 292° |
| 2026-02-22 06:30 | 26.22491 | 50.73691 | 20199 ft | 413 kts | 293° |
| 2026-02-22 06:30 | 26.23712 | 50.70792 | 20480 ft | 414 kts | 296° |
| 2026-02-22 06:31 | 26.25262 | 50.68078 | 20743 ft | 417 kts | 306° |
| 2026-02-22 06:31 | 26.27296 | 50.65748 | 21008 ft | 422 kts | 318° |
| 2026-02-22 06:31 | 26.29797 | 50.63991 | 21269 ft | 428 kts | 329° |
| 2026-02-22 06:31 | 26.32520 | 50.62623 | 21511 ft | 431 kts | 334° |
| 2026-02-22 06:32 | 26.35339 | 50.61434 | 21752 ft | 434 kts | 336° |
| 2026-02-22 06:32 | 26.38198 | 50.60336 | 21993 ft | 435 kts | 337° |
| 2026-02-22 06:32 | 26.41079 | 50.59261 | 22243 ft | 436 kts | 337° |
| 2026-02-22 06:32 | 26.43965 | 50.58217 | 22485 ft | 437 kts | 338° |
| 2026-02-22 06:33 | 26.46835 | 50.57201 | 22696 ft | 438 kts | 338° |
| 2026-02-22 06:33 | 26.49747 | 50.56166 | 22939 ft | 439 kts | 337° |
| 2026-02-22 06:33 | 26.52660 | 50.55116 | 23148 ft | 440 kts | 337° |
| 2026-02-22 06:33 | 26.55580 | 50.54051 | 23364 ft | 441 kts | 336° |
| 2026-02-22 06:34 | 26.58503 | 50.52970 | 23582 ft | 442 kts | 336° |
| 2026-02-22 06:34 | 26.61424 | 50.51876 | 23749 ft | 443 kts | 336° |
| 2026-02-22 06:34 | 26.64345 | 50.50775 | 23945 ft | 444 kts | 336° |
| 2026-02-22 06:34 | 26.67257 | 50.49626 | 24113 ft | 442 kts | 333° |
| 2026-02-22 06:35 | 26.69999 | 50.48111 | 24294 ft | 437 kts | 324° |
| 2026-02-22 06:35 | 26.72457 | 50.46142 | 24486 ft | 432 kts | 317° |
| 2026-02-22 06:35 | 26.74745 | 50.43962 | 24648 ft | 432 kts | 314° |
| 2026-02-22 06:35 | 26.76955 | 50.41687 | 24828 ft | 431 kts | 313° |
| 2026-02-22 06:36 | 26.79122 | 50.39367 | 25001 ft | 432 kts | 312° |
| 2026-02-22 06:36 | 26.81254 | 50.37055 | 25183 ft | 432 kts | 312° |
| 2026-02-22 06:36 | 26.83415 | 50.34717 | 25358 ft | 433 kts | 312° |
| 2026-02-22 06:36 | 26.85587 | 50.32381 | 25533 ft | 433 kts | 312° |
| 2026-02-22 06:37 | 26.87767 | 50.30051 | 25715 ft | 433 kts | 313° |
| 2026-02-22 06:37 | 26.89952 | 50.27724 | 25881 ft | 434 kts | 313° |
| 2026-02-22 06:37 | 26.92152 | 50.25387 | 26067 ft | 435 kts | 313° |
| 2026-02-22 06:37 | 26.94347 | 50.23058 | 26224 ft | 435 kts | 313° |
| 2026-02-22 06:38 | 26.96545 | 50.20726 | 26406 ft | 436 kts | 313° |
| 2026-02-22 06:38 | 26.98753 | 50.18384 | 26562 ft | 436 kts | 313° |
| 2026-02-22 06:38 | 27.00958 | 50.16041 | 26736 ft | 437 kts | 313° |
| 2026-02-22 06:38 | 27.03168 | 50.13693 | 26902 ft | 437 kts | 313° |
| 2026-02-22 06:39 | 27.05470 | 50.11456 | 27077 ft | 440 kts | 316° |
| 2026-02-22 06:39 | 27.07857 | 50.09289 | 27230 ft | 441 kts | 317° |
| 2026-02-22 06:39 | 27.10268 | 50.07150 | 27418 ft | 441 kts | 317° |
| 2026-02-22 06:39 | 27.12693 | 50.05024 | 27574 ft | 442 kts | 317° |
| 2026-02-22 06:40 | 27.15124 | 50.02903 | 27719 ft | 443 kts | 317° |
| 2026-02-22 06:40 | 27.17563 | 50.00776 | 27881 ft | 443 kts | 317° |
| 2026-02-22 06:40 | 27.19965 | 49.98678 | 28044 ft | 444 kts | 317° |
| 2026-02-22 06:40 | 27.22405 | 49.96542 | 28208 ft | 444 kts | 317° |
| 2026-02-22 06:41 | 27.24844 | 49.94403 | 28358 ft | 445 kts | 317° |
| 2026-02-22 06:41 | 27.27283 | 49.92260 | 28511 ft | 445 kts | 317° |
| 2026-02-22 06:41 | 27.29719 | 49.90120 | 28667 ft | 445 kts | 317° |
| 2026-02-22 06:41 | 27.32164 | 49.87970 | 28807 ft | 446 kts | 317° |
| 2026-02-22 06:42 | 27.34604 | 49.85818 | 28950 ft | 446 kts | 317° |
| 2026-02-22 06:42 | 27.37051 | 49.83657 | 29086 ft | 447 kts | 317° |
| 2026-02-22 06:42 | 27.39499 | 49.81493 | 29224 ft | 447 kts | 317° |
| 2026-02-22 06:42 | 27.41950 | 49.79327 | 29353 ft | 448 kts | 317° |
| 2026-02-22 06:43 | 27.44404 | 49.77157 | 29488 ft | 448 kts | 317° |
| 2026-02-22 06:43 | 27.46861 | 49.74984 | 29617 ft | 449 kts | 317° |
| 2026-02-22 06:43 | 27.49287 | 49.72839 | 29750 ft | 449 kts | 317° |
| 2026-02-22 06:43 | 27.51775 | 49.70636 | 29877 ft | 450 kts | 317° |
| 2026-02-22 06:44 | 27.54236 | 49.68456 | 30009 ft | 450 kts | 317° |
| 2026-02-22 06:44 | 27.56670 | 49.66299 | 30122 ft | 450 kts | 317° |
| 2026-02-22 06:44 | 27.61605 | 49.61922 | 30296 ft | 452 kts | 317° |
| 2026-02-22 06:45 | 27.64084 | 49.59722 | 30457 ft | 451 kts | 317° |
| 2026-02-22 06:45 | 27.66534 | 49.57550 | 30958 ft | 442 kts | 316° |
| 2026-02-22 06:45 | 27.68925 | 49.55431 | 31498 ft | 433 kts | 316° |
| 2026-02-22 06:45 | 27.71272 | 49.53352 | 32030 ft | 425 kts | 316° |
| 2026-02-22 06:46 | 27.73605 | 49.51344 | 32535 ft | 420 kts | 319° |
| 2026-02-22 06:46 | 27.76062 | 49.49583 | 33044 ft | 416 kts | 323° |
| 2026-02-22 06:46 | 27.78568 | 49.47949 | 33363 ft | 416 kts | 324° |
| 2026-02-22 06:47 | 27.83668 | 49.44822 | 33748 ft | 419 kts | 325° |
| 2026-02-22 06:47 | 27.86245 | 49.43276 | 33930 ft | 420 kts | 326° |
| 2026-02-22 06:47 | 27.88797 | 49.41743 | 34097 ft | 421 kts | 326° |
| 2026-02-22 06:47 | 27.91385 | 49.40181 | 34246 ft | 422 kts | 325° |
| 2026-02-22 06:48 | 27.93983 | 49.38606 | 34401 ft | 424 kts | 325° |
| 2026-02-22 06:48 | 27.96588 | 49.37021 | 34554 ft | 425 kts | 325° |
| 2026-02-22 06:48 | 27.99196 | 49.35429 | 34710 ft | 426 kts | 325° |
| 2026-02-22 06:48 | 28.01811 | 49.33831 | 34857 ft | 427 kts | 325° |
| 2026-02-22 06:49 | 28.04432 | 49.32228 | 35018 ft | 428 kts | 325° |
| 2026-02-22 06:49 | 28.07062 | 49.30618 | 35163 ft | 430 kts | 325° |
| 2026-02-22 06:49 | 28.09695 | 49.29005 | 35308 ft | 431 kts | 325° |
| 2026-02-22 06:49 | 28.12337 | 49.27387 | 35449 ft | 432 kts | 325° |
| 2026-02-22 06:50 | 28.14993 | 49.25759 | 35603 ft | 434 kts | 325° |
| 2026-02-22 06:50 | 28.17651 | 49.24129 | 35739 ft | 435 kts | 325° |
| 2026-02-22 06:50 | 28.20318 | 49.22493 | 35877 ft | 436 kts | 325° |
| 2026-02-22 06:50 | 28.22989 | 49.20854 | 36016 ft | 438 kts | 325° |
| 2026-02-22 06:51 | 28.25670 | 49.19207 | 36156 ft | 439 kts | 325° |
| 2026-02-22 06:51 | 28.28322 | 49.17577 | 36295 ft | 440 kts | 325° |
| 2026-02-22 06:51 | 28.31054 | 49.15897 | 36431 ft | 441 kts | 325° |
| 2026-02-22 06:51 | 28.33721 | 49.14257 | 36555 ft | 442 kts | 325° |
| 2026-02-22 06:52 | 28.36433 | 49.12587 | 36681 ft | 444 kts | 325° |
| 2026-02-22 06:52 | 28.39129 | 49.10878 | 36798 ft | 442 kts | 322° |
| 2026-02-22 06:52 | 28.41721 | 49.08999 | 36931 ft | 442 kts | 321° |
| 2026-02-22 06:52 | 28.44287 | 49.07078 | 37064 ft | 442 kts | 320° |
| 2026-02-22 06:53 | 28.46845 | 49.05129 | 37170 ft | 443 kts | 320° |
| 2026-02-22 06:53 | 28.49405 | 49.03161 | 37312 ft | 444 kts | 320° |
| 2026-02-22 06:53 | 28.51968 | 49.01186 | 37415 ft | 446 kts | 320° |
| 2026-02-22 06:54 | 28.57115 | 48.97218 | 37628 ft | 448 kts | 320° |
| 2026-02-22 06:54 | 28.59705 | 48.95224 | 37735 ft | 449 kts | 320° |
| 2026-02-22 06:54 | 28.62298 | 48.93228 | 37846 ft | 450 kts | 320° |
| 2026-02-22 06:55 | 28.67494 | 48.89229 | 38024 ft | 452 kts | 320° |
| 2026-02-22 06:55 | 28.72706 | 48.85216 | 38034 ft | 451 kts | 320° |
| 2026-02-22 06:56 | 28.77869 | 48.81235 | 38035 ft | 451 kts | 320° |
| 2026-02-22 06:56 | 28.83076 | 48.77220 | 38039 ft | 452 kts | 320° |
| 2026-02-22 06:57 | 28.88300 | 48.73219 | 38035 ft | 453 kts | 320° |
| 2026-02-22 06:57 | 28.93531 | 48.69216 | 38037 ft | 452 kts | 320° |
| 2026-02-22 06:58 | 28.98761 | 48.65205 | 38036 ft | 452 kts | 320° |
| 2026-02-22 06:58 | 29.03982 | 48.61192 | 38037 ft | 452 kts | 320° |
| 2026-02-22 06:59 | 29.09153 | 48.57211 | 38040 ft | 451 kts | 320° |
| 2026-02-22 06:59 | 29.14364 | 48.53195 | 38037 ft | 451 kts | 320° |
| 2026-02-22 07:00 | 29.19561 | 48.49185 | 38039 ft | 450 kts | 320° |
| 2026-02-22 07:00 | 29.24764 | 48.45165 | 38041 ft | 450 kts | 320° |
| 2026-02-22 07:01 | 29.29947 | 48.41155 | 38036 ft | 449 kts | 320° |
| 2026-02-22 07:01 | 29.35094 | 48.37169 | 38032 ft | 449 kts | 320° |
| 2026-02-22 07:02 | 29.40270 | 48.33155 | 38037 ft | 448 kts | 319° |
| 2026-02-22 07:02 | 29.45451 | 48.29170 | 38042 ft | 449 kts | 321° |
| 2026-02-22 07:03 | 29.50880 | 48.25536 | 38039 ft | 452 kts | 324° |
| 2026-02-22 07:03 | 29.56399 | 48.22054 | 38041 ft | 452 kts | 324° |
| 2026-02-22 07:04 | 29.61848 | 48.18551 | 38036 ft | 451 kts | 323° |
| 2026-02-22 07:04 | 29.67303 | 48.14972 | 38040 ft | 450 kts | 323° |
| 2026-02-22 07:05 | 29.72728 | 48.11384 | 38040 ft | 449 kts | 323° |
| 2026-02-22 07:05 | 29.78147 | 48.07795 | 38034 ft | 449 kts | 323° |
| 2026-02-22 07:06 | 29.83565 | 48.04206 | 38046 ft | 448 kts | 323° |
| 2026-02-22 07:06 | 29.88972 | 48.00621 | 38039 ft | 448 kts | 323° |
| 2026-02-22 07:07 | 29.94373 | 47.97036 | 38035 ft | 448 kts | 323° |
| 2026-02-22 07:07 | 29.99742 | 47.93405 | 38039 ft | 444 kts | 320° |
| 2026-02-22 07:08 | 30.03676 | 47.89729 | 38046 ft | 433 kts | 309° |
| 2026-02-22 07:08 | 30.07732 | 47.84627 | 38045 ft | 430 kts | 306° |
| 2026-02-22 07:09 | 30.11622 | 47.79391 | 38044 ft | 429 kts | 305° |
| 2026-02-22 07:09 | 30.15494 | 47.74150 | 38049 ft | 429 kts | 305° |
| 2026-02-22 07:10 | 30.19385 | 47.68920 | 38047 ft | 429 kts | 305° |
| 2026-02-22 07:10 | 30.23263 | 47.63726 | 38037 ft | 428 kts | 305° |
| 2026-02-22 07:11 | 30.27157 | 47.58507 | 38038 ft | 428 kts | 305° |
| 2026-02-22 07:11 | 30.31046 | 47.53288 | 38045 ft | 428 kts | 305° |
| 2026-02-22 07:12 | 30.34930 | 47.48068 | 38050 ft | 427 kts | 305° |
| 2026-02-22 07:12 | 30.38787 | 47.42876 | 38052 ft | 427 kts | 305° |
| 2026-02-22 07:13 | 30.42658 | 47.37659 | 38049 ft | 427 kts | 305° |
| 2026-02-22 07:13 | 30.46526 | 47.32438 | 38047 ft | 426 kts | 305° |
| 2026-02-22 07:14 | 30.50385 | 47.27222 | 38049 ft | 426 kts | 305° |
| 2026-02-22 07:14 | 30.54240 | 47.22006 | 38048 ft | 426 kts | 304° |
| 2026-02-22 07:15 | 30.58463 | 47.17107 | 38049 ft | 433 kts | 312° |
| 2026-02-22 07:15 | 30.63115 | 47.12647 | 38049 ft | 434 kts | 314° |
| 2026-02-22 07:16 | 30.67847 | 47.08262 | 38049 ft | 434 kts | 314° |
| 2026-02-22 07:16 | 30.72572 | 47.03881 | 38048 ft | 434 kts | 314° |
| 2026-02-22 07:17 | 30.77285 | 46.99481 | 38052 ft | 434 kts | 314° |
| 2026-02-22 07:17 | 30.81977 | 46.95083 | 38055 ft | 433 kts | 313° |
| 2026-02-22 07:18 | 30.86640 | 46.90705 | 38047 ft | 433 kts | 313° |
| 2026-02-22 07:18 | 30.91328 | 46.86298 | 38050 ft | 433 kts | 313° |
| 2026-02-22 07:19 | 30.96013 | 46.81890 | 38053 ft | 432 kts | 313° |
| 2026-02-22 07:19 | 31.00693 | 46.77480 | 38054 ft | 432 kts | 313° |
| 2026-02-22 07:20 | 31.05341 | 46.73094 | 38053 ft | 432 kts | 313° |
| 2026-02-22 07:20 | 31.10010 | 46.68683 | 38054 ft | 432 kts | 313° |
| 2026-02-22 07:21 | 31.14672 | 46.64273 | 38053 ft | 432 kts | 313° |
| 2026-02-22 07:21 | 31.19344 | 46.59848 | 38055 ft | 431 kts | 313° |
| 2026-02-22 07:22 | 31.24005 | 46.55428 | 38057 ft | 431 kts | 313° |
| 2026-02-22 07:22 | 31.28660 | 46.51007 | 38055 ft | 431 kts | 313° |
| 2026-02-22 07:23 | 31.33318 | 46.46578 | 38056 ft | 431 kts | 312° |
| 2026-02-22 07:23 | 31.37965 | 46.42153 | 38055 ft | 430 kts | 312° |
| 2026-02-22 07:24 | 31.42606 | 46.37728 | 38060 ft | 430 kts | 312° |
| 2026-02-22 07:24 | 31.47217 | 46.33326 | 38062 ft | 430 kts | 312° |
| 2026-02-22 07:25 | 31.51855 | 46.28893 | 38066 ft | 430 kts | 312° |
| 2026-02-22 07:25 | 31.56484 | 46.24463 | 38066 ft | 430 kts | 312° |
| 2026-02-22 07:26 | 31.61121 | 46.20018 | 38066 ft | 429 kts | 312° |
| 2026-02-22 07:26 | 31.65740 | 46.15585 | 38068 ft | 429 kts | 312° |
| 2026-02-22 07:27 | 31.70366 | 46.11139 | 38076 ft | 429 kts | 312° |
| 2026-02-22 07:27 | 31.74951 | 46.06727 | 38080 ft | 429 kts | 311° |
| 2026-02-22 07:28 | 31.79532 | 46.02250 | 38074 ft | 427 kts | 311° |
| 2026-02-22 07:28 | 31.84069 | 45.97725 | 38078 ft | 427 kts | 311° |
| 2026-02-22 07:29 | 31.88602 | 45.93203 | 38082 ft | 427 kts | 311° |
| 2026-02-22 07:29 | 31.93139 | 45.88686 | 38077 ft | 427 kts | 311° |
| 2026-02-22 07:30 | 31.97680 | 45.84168 | 38073 ft | 427 kts | 311° |
| 2026-02-22 07:30 | 32.02211 | 45.79654 | 38071 ft | 427 kts | 311° |
| 2026-02-22 07:31 | 32.06747 | 45.75128 | 38070 ft | 427 kts | 310° |
| 2026-02-22 07:31 | 32.11275 | 45.70604 | 38084 ft | 427 kts | 310° |
| 2026-02-22 07:32 | 32.15775 | 45.66103 | 38072 ft | 426 kts | 310° |
| 2026-02-22 07:32 | 32.20294 | 45.61574 | 38077 ft | 426 kts | 310° |
| 2026-02-22 07:33 | 32.24822 | 45.57032 | 38080 ft | 426 kts | 310° |
| 2026-02-22 07:33 | 32.29342 | 45.52491 | 38084 ft | 426 kts | 310° |
| 2026-02-22 07:34 | 32.33853 | 45.47954 | 38081 ft | 426 kts | 310° |
| 2026-02-22 07:34 | 32.38366 | 45.43407 | 38083 ft | 426 kts | 310° |
| 2026-02-22 07:35 | 32.42880 | 45.38854 | 38081 ft | 426 kts | 310° |
| 2026-02-22 07:35 | 32.47353 | 45.34336 | 38084 ft | 425 kts | 310° |
| 2026-02-22 07:36 | 32.51859 | 45.29779 | 38080 ft | 425 kts | 310° |
| 2026-02-22 07:36 | 32.56525 | 45.25404 | 38089 ft | 432 kts | 315° |
| 2026-02-22 07:37 | 32.61498 | 45.21371 | 38085 ft | 433 kts | 316° |
| 2026-02-22 07:37 | 32.66522 | 45.17405 | 38084 ft | 434 kts | 316° |
| 2026-02-22 07:38 | 32.71554 | 45.13434 | 38087 ft | 433 kts | 316° |
| 2026-02-22 07:38 | 32.76531 | 45.09486 | 38084 ft | 433 kts | 316° |
| 2026-02-22 07:39 | 32.81536 | 45.05502 | 38084 ft | 432 kts | 315° |
| 2026-02-22 07:39 | 32.86525 | 45.01523 | 38081 ft | 432 kts | 315° |
| 2026-02-22 07:40 | 32.91514 | 44.97539 | 38083 ft | 431 kts | 315° |
| 2026-02-22 07:40 | 32.96465 | 44.93580 | 38064 ft | 431 kts | 315° |
| 2026-02-22 07:41 | 33.01441 | 44.89597 | 38076 ft | 430 kts | 315° |
| 2026-02-22 07:41 | 33.06402 | 44.85619 | 38070 ft | 430 kts | 315° |
| 2026-02-22 07:42 | 33.11362 | 44.81636 | 38065 ft | 430 kts | 315° |
| 2026-02-22 07:42 | 33.18814 | 44.75678 | 38062 ft | 432 kts | 317° |
| 2026-02-22 07:43 | 33.21487 | 44.73942 | 38060 ft | 443 kts | 323° |
| 2026-02-22 07:43 | 33.24398 | 44.72597 | 38063 ft | 455 kts | 330° |
| 2026-02-22 07:43 | 33.30565 | 44.70584 | 38059 ft | 462 kts | 333° |
| 2026-02-22 07:44 | 33.36845 | 44.68793 | 38057 ft | 463 kts | 334° |
| 2026-02-22 07:44 | 33.43078 | 44.67017 | 38058 ft | 463 kts | 333° |
| 2026-02-22 07:45 | 33.49332 | 44.65192 | 38056 ft | 462 kts | 333° |
| 2026-02-22 07:45 | 33.55586 | 44.63343 | 38052 ft | 462 kts | 333° |
| 2026-02-22 07:46 | 33.61824 | 44.61491 | 38051 ft | 462 kts | 333° |
| 2026-02-22 07:46 | 33.68069 | 44.59636 | 38051 ft | 462 kts | 333° |
| 2026-02-22 07:47 | 33.74280 | 44.57790 | 38052 ft | 462 kts | 332° |
| 2026-02-22 07:47 | 33.80537 | 44.55927 | 38048 ft | 463 kts | 332° |
| 2026-02-22 07:48 | 33.86785 | 44.54065 | 38045 ft | 463 kts | 332° |
| 2026-02-22 07:48 | 33.93034 | 44.52200 | 38040 ft | 463 kts | 332° |
| 2026-02-22 07:49 | 33.99281 | 44.50332 | 38052 ft | 463 kts | 332° |
| 2026-02-22 07:49 | 34.05537 | 44.48459 | 38038 ft | 463 kts | 332° |
| 2026-02-22 07:50 | 34.11793 | 44.46583 | 38042 ft | 463 kts | 332° |
| 2026-02-22 07:50 | 34.18005 | 44.44717 | 38039 ft | 463 kts | 332° |
| 2026-02-22 07:51 | 34.24260 | 44.42836 | 38037 ft | 463 kts | 332° |
| 2026-02-22 07:51 | 34.30525 | 44.40948 | 38038 ft | 463 kts | 332° |
| 2026-02-22 07:52 | 34.36791 | 44.39057 | 38038 ft | 463 kts | 332° |
| 2026-02-22 07:52 | 34.43014 | 44.37177 | 38037 ft | 463 kts | 332° |
| 2026-02-22 07:53 | 34.49271 | 44.35283 | 38031 ft | 463 kts | 332° |
| 2026-02-22 07:53 | 34.55527 | 44.33387 | 38037 ft | 463 kts | 332° |
| 2026-02-22 07:54 | 34.61784 | 44.31487 | 38041 ft | 463 kts | 331° |
| 2026-02-22 07:54 | 34.68039 | 44.29585 | 38027 ft | 464 kts | 331° |
| 2026-02-22 07:55 | 34.74301 | 44.27678 | 38025 ft | 464 kts | 331° |
| 2026-02-22 07:55 | 34.80526 | 44.25779 | 38020 ft | 464 kts | 331° |
| 2026-02-22 07:56 | 34.86790 | 44.23866 | 38023 ft | 464 kts | 331° |
| 2026-02-22 07:56 | 34.92001 | 44.22271 | 38021 ft | 465 kts | 331° |
| 2026-02-22 07:57 | 34.98279 | 44.20347 | 38015 ft | 465 kts | 331° |
| 2026-02-22 07:57 | 35.04565 | 44.18417 | 38017 ft | 466 kts | 331° |
| 2026-02-22 07:58 | 35.10856 | 44.16483 | 38015 ft | 466 kts | 331° |
| 2026-02-22 07:58 | 35.17151 | 44.14545 | 38013 ft | 467 kts | 331° |
| 2026-02-22 07:59 | 35.23419 | 44.12612 | 38002 ft | 467 kts | 332° |
| 2026-02-22 07:59 | 35.29733 | 44.10663 | 38007 ft | 468 kts | 332° |
| 2026-02-22 08:00 | 35.36057 | 44.08707 | 38015 ft | 468 kts | 332° |
| 2026-02-22 08:00 | 35.42375 | 44.06750 | 38011 ft | 469 kts | 332° |
| 2026-02-22 08:01 | 35.48664 | 44.04798 | 38011 ft | 469 kts | 332° |
| 2026-02-22 08:01 | 35.55005 | 44.02830 | 38007 ft | 470 kts | 332° |
| 2026-02-22 08:02 | 35.61344 | 44.00857 | 38004 ft | 470 kts | 332° |
| 2026-02-22 08:02 | 35.67689 | 43.98877 | 38012 ft | 470 kts | 332° |
| 2026-02-22 08:03 | 35.74039 | 43.96892 | 38012 ft | 471 kts | 332° |
| 2026-02-22 08:03 | 35.80352 | 43.94917 | 38009 ft | 471 kts | 332° |
| 2026-02-22 08:04 | 35.86715 | 43.92923 | 38007 ft | 471 kts | 332° |
| 2026-02-22 08:04 | 35.93081 | 43.90925 | 38008 ft | 472 kts | 332° |
| 2026-02-22 08:05 | 35.99445 | 43.88924 | 38012 ft | 472 kts | 332° |
| 2026-02-22 08:05 | 36.05820 | 43.86916 | 38010 ft | 473 kts | 332° |
| 2026-02-22 08:06 | 36.12195 | 43.84904 | 38013 ft | 473 kts | 332° |
| 2026-02-22 08:06 | 36.18538 | 43.82901 | 38007 ft | 473 kts | 332° |
| 2026-02-22 08:07 | 36.24930 | 43.80878 | 38010 ft | 473 kts | 332° |
| 2026-02-22 08:07 | 36.28047 | 43.79693 | 38011 ft | 462 kts | 326° |
| 2026-02-22 08:07 | 36.31043 | 43.78272 | 38013 ft | 459 kts | 325° |
| 2026-02-22 08:08 | 36.36948 | 43.75274 | 38012 ft | 458 kts | 324° |
| 2026-02-22 08:08 | 36.42809 | 43.72208 | 38016 ft | 457 kts | 324° |
| 2026-02-22 08:09 | 36.48641 | 43.69154 | 38016 ft | 458 kts | 324° |
| 2026-02-22 08:09 | 36.54521 | 43.66088 | 38010 ft | 458 kts | 324° |
| 2026-02-22 08:10 | 36.60414 | 43.63017 | 38008 ft | 459 kts | 324° |
| 2026-02-22 08:10 | 36.66306 | 43.59944 | 38009 ft | 459 kts | 324° |
| 2026-02-22 08:11 | 36.72207 | 43.56859 | 38017 ft | 460 kts | 324° |
| 2026-02-22 08:11 | 36.78102 | 43.53739 | 38016 ft | 459 kts | 323° |
| 2026-02-22 08:12 | 36.83922 | 43.50475 | 38021 ft | 458 kts | 322° |
| 2026-02-22 08:12 | 36.89738 | 43.47180 | 37993 ft | 459 kts | 323° |
| 2026-02-22 08:13 | 36.95533 | 43.43902 | 38023 ft | 461 kts | 323° |
| 2026-02-22 08:13 | 37.01383 | 43.40625 | 38038 ft | 460 kts | 323° |
| 2026-02-22 08:14 | 37.07240 | 43.37339 | 38031 ft | 461 kts | 323° |
| 2026-02-22 08:14 | 37.13100 | 43.34045 | 38041 ft | 461 kts | 323° |
| 2026-02-22 08:15 | 37.18958 | 43.30747 | 38031 ft | 461 kts | 323° |
| 2026-02-22 08:15 | 37.24776 | 43.27459 | 38032 ft | 461 kts | 323° |
| 2026-02-22 08:16 | 37.30531 | 43.23962 | 38040 ft | 451 kts | 316° |
| 2026-02-22 08:16 | 37.33086 | 43.21760 | 38045 ft | 439 kts | 310° |
| 2026-02-22 08:16 | 37.35303 | 43.19219 | 38022 ft | 424 kts | 303° |
| 2026-02-22 08:17 | 37.38659 | 43.13344 | 37977 ft | 408 kts | 291° |
| 2026-02-22 08:17 | 37.41375 | 43.07091 | 38025 ft | 406 kts | 289° |
| 2026-02-22 08:18 | 37.43981 | 43.00780 | 38033 ft | 407 kts | 289° |
| 2026-02-22 08:18 | 37.46610 | 42.94461 | 38023 ft | 407 kts | 289° |
| 2026-02-22 08:19 | 37.49255 | 42.88201 | 38012 ft | 408 kts | 289° |
| 2026-02-22 08:19 | 37.51936 | 42.81875 | 38013 ft | 409 kts | 289° |
| 2026-02-22 08:20 | 37.54619 | 42.75543 | 38013 ft | 409 kts | 289° |
| 2026-02-22 08:20 | 37.57296 | 42.69196 | 38011 ft | 410 kts | 289° |
| 2026-02-22 08:21 | 37.61307 | 42.59670 | 37999 ft | 410 kts | 289° |
| 2026-02-22 08:22 | 37.63965 | 42.53359 | 38003 ft | 410 kts | 289° |
| 2026-02-22 08:22 | 37.66635 | 42.47007 | 37990 ft | 409 kts | 289° |
| 2026-02-22 08:23 | 37.69302 | 42.40645 | 37996 ft | 409 kts | 289° |
| 2026-02-22 08:23 | 37.71960 | 42.34284 | 37990 ft | 410 kts | 289° |
| 2026-02-22 08:24 | 37.74616 | 42.27915 | 37992 ft | 410 kts | 289° |
| 2026-02-22 08:24 | 37.77274 | 42.21540 | 37983 ft | 410 kts | 288° |
| 2026-02-22 08:25 | 37.79927 | 42.15162 | 37980 ft | 410 kts | 288° |
| 2026-02-22 08:25 | 37.82576 | 42.08776 | 37981 ft | 410 kts | 288° |
| 2026-02-22 08:26 | 37.85219 | 42.02394 | 37988 ft | 410 kts | 288° |
| 2026-02-22 08:26 | 37.87862 | 41.96006 | 37976 ft | 409 kts | 288° |
| 2026-02-22 08:27 | 37.90554 | 41.89691 | 37987 ft | 414 kts | 292° |
| 2026-02-22 08:27 | 37.94100 | 41.83792 | 37982 ft | 425 kts | 299° |
| 2026-02-22 08:28 | 37.98017 | 41.78117 | 37982 ft | 428 kts | 300° |
| 2026-02-22 08:28 | 38.01988 | 41.72485 | 37985 ft | 428 kts | 300° |
| 2026-02-22 08:29 | 38.05950 | 41.66825 | 37985 ft | 428 kts | 300° |
| 2026-02-22 08:29 | 38.09894 | 41.61148 | 37983 ft | 428 kts | 300° |
| 2026-02-22 08:30 | 38.13803 | 41.55499 | 37987 ft | 428 kts | 300° |
| 2026-02-22 08:30 | 38.17074 | 41.50763 | 37977 ft | 428 kts | 300° |